EDLV

Niederrhein Airport

Weeze, Germany
METAR EDLV 152020Z VRB03KT CAVOK 23/09 Q1015
Observed Flight Rules
Jul-15 @ 20:20 UTC (37 minutes ago) Visual Flight Rules
Wind Visibility Clouds
Variable at 3 knots 10,000+ meters
  • Clear skies
Temperatures Readings
Current 23°C / 73°F
Dewpoint 9°C / 48°F
Humidity 41%
Altimeter 29.97" Hg
Pressure 1015 hPa
Elevation 32
METAR EDLV 152020Z VRB03KT CAVOK 23/09 Q1015
Observed Flight Rules
Jul-15 @ 20:20 UTC
(37 minutes ago)
VFR
Wind Visibility
Variable at 3 knots 10,000+ meters
Clouds
  • Clear skies
Temperature Dewpoint
23°C / 73°F 9°C / 48°F
Humidity Altimeter Pressure
41% 29.97" Hg 1015 hPa